sensor_id;sensor_type;location;lat;lon;timestamp;P1;durP1;ratioP1;P2;durP2;ratioP2
22030;SDS011;11179;52.106;21.024;2022-08-21T00:01:56;11.83;;;5.80;;
22030;SDS011;11179;52.106;21.024;2022-08-21T00:04:22;10.33;;;5.90;;
22030;SDS011;11179;52.106;21.024;2022-08-21T00:06:48;8.93;;;5.67;;
22030;SDS011;11179;52.106;21.024;2022-08-21T00:09:18;12.20;;;6.73;;
22030;SDS011;11179;52.106;21.024;2022-08-21T00:11:44;10.63;;;6.20;;
22030;SDS011;11179;52.106;21.024;2022-08-21T00:14:13;15.57;;;6.43;;
22030;SDS011;11179;52.106;21.024;2022-08-21T00:16:40;12.10;;;5.80;;
22030;SDS011;11179;52.106;21.024;2022-08-21T00:19:06;8.60;;;5.33;;
22030;SDS011;11179;52.106;21.024;2022-08-21T00:21:32;10.70;;;6.60;;
22030;SDS011;11179;52.106;21.024;2022-08-21T00:23:59;17.03;;;6.40;;
22030;SDS011;11179;52.106;21.024;2022-08-21T00:26:25;10.70;;;6.30;;
22030;SDS011;11179;52.106;21.024;2022-08-21T00:28:51;12.87;;;6.00;;
22030;SDS011;11179;52.106;21.024;2022-08-21T00:31:16;12.30;;;5.73;;
22030;SDS011;11179;52.106;21.024;2022-08-21T00:33:42;10.93;;;5.80;;
22030;SDS011;11179;52.106;21.024;2022-08-21T00:36:08;11.73;;;6.07;;
22030;SDS011;11179;52.106;21.024;2022-08-21T00:38:33;11.27;;;5.50;;
22030;SDS011;11179;52.106;21.024;2022-08-21T00:41:00;12.30;;;6.20;;
22030;SDS011;11179;52.106;21.024;2022-08-21T00:43:32;13.67;;;6.00;;
22030;SDS011;11179;52.106;21.024;2022-08-21T00:46:00;14.23;;;6.23;;
22030;SDS011;11179;52.106;21.024;2022-08-21T00:48:26;17.50;;;5.90;;
22030;SDS011;11179;52.106;21.024;2022-08-21T00:51:00;9.17;;;6.17;;
22030;SDS011;11179;52.106;21.024;2022-08-21T00:53:30;21.23;;;6.27;;
22030;SDS011;11179;52.106;21.024;2022-08-21T00:55:57;16.23;;;6.03;;
22030;SDS011;11179;52.106;21.024;2022-08-21T00:58:25;11.40;;;6.30;;
22030;SDS011;11179;52.106;21.024;2022-08-21T01:00:52;15.90;;;6.50;;
22030;SDS011;11179;52.106;21.024;2022-08-21T01:03:20;9.10;;;6.20;;
22030;SDS011;11179;52.106;21.024;2022-08-21T01:05:47;12.60;;;6.47;;
22030;SDS011;11179;52.106;21.024;2022-08-21T01:08:13;12.93;;;6.27;;
22030;SDS011;11179;52.106;21.024;2022-08-21T01:10:41;9.57;;;6.20;;
22030;SDS011;11179;52.106;21.024;2022-08-21T01:13:08;11.63;;;6.50;;
22030;SDS011;11179;52.106;21.024;2022-08-21T01:15:37;9.97;;;6.50;;
22030;SDS011;11179;52.106;21.024;2022-08-21T01:18:08;9.93;;;6.30;;
22030;SDS011;11179;52.106;21.024;2022-08-21T01:20:36;13.37;;;6.80;;
22030;SDS011;11179;52.106;21.024;2022-08-21T01:23:04;10.13;;;5.73;;
22030;SDS011;11179;52.106;21.024;2022-08-21T01:25:30;16.60;;;6.53;;
22030;SDS011;11179;52.106;21.024;2022-08-21T01:27:57;11.17;;;7.30;;
22030;SDS011;11179;52.106;21.024;2022-08-21T01:30:27;8.90;;;5.73;;
22030;SDS011;11179;52.106;21.024;2022-08-21T01:32:53;10.57;;;6.37;;
22030;SDS011;11179;52.106;21.024;2022-08-21T01:35:20;11.67;;;6.43;;
22030;SDS011;11179;52.106;21.024;2022-08-21T01:37:46;11.43;;;6.10;;
22030;SDS011;11179;52.106;21.024;2022-08-21T01:40:12;13.67;;;6.40;;
22030;SDS011;11179;52.106;21.024;2022-08-21T01:42:41;9.60;;;6.30;;
22030;SDS011;11179;52.106;21.024;2022-08-21T01:45:07;11.47;;;7.23;;
22030;SDS011;11179;52.106;21.024;2022-08-21T01:47:32;16.70;;;7.07;;
22030;SDS011;11179;52.106;21.024;2022-08-21T01:49:58;10.97;;;6.23;;
22030;SDS011;11179;52.106;21.024;2022-08-21T01:52:23;13.53;;;6.60;;
22030;SDS011;11179;52.106;21.024;2022-08-21T01:54:49;11.10;;;6.73;;
22030;SDS011;11179;52.106;21.024;2022-08-21T01:57:14;10.57;;;6.50;;
22030;SDS011;11179;52.106;21.024;2022-08-21T01:59:40;10.93;;;6.20;;
22030;SDS011;11179;52.106;21.024;2022-08-21T02:02:06;13.43;;;6.40;;
22030;SDS011;11179;52.106;21.024;2022-08-21T02:04:32;10.40;;;6.40;;
22030;SDS011;11179;52.106;21.024;2022-08-21T02:06:58;14.77;;;6.27;;
22030;SDS011;11179;52.106;21.024;2022-08-21T02:09:25;12.80;;;6.57;;
22030;SDS011;11179;52.106;21.024;2022-08-21T02:11:50;11.43;;;6.20;;
22030;SDS011;11179;52.106;21.024;2022-08-21T02:14:16;17.43;;;6.07;;
22030;SDS011;11179;52.106;21.024;2022-08-21T02:16:43;10.40;;;6.70;;
22030;SDS011;11179;52.106;21.024;2022-08-21T02:19:10;12.87;;;6.10;;
22030;SDS011;11179;52.106;21.024;2022-08-21T02:21:37;12.20;;;6.80;;
22030;SDS011;11179;52.106;21.024;2022-08-21T02:24:02;14.53;;;7.10;;
22030;SDS011;11179;52.106;21.024;2022-08-21T02:26:28;17.10;;;7.00;;
22030;SDS011;11179;52.106;21.024;2022-08-21T02:28:53;13.53;;;6.33;;
22030;SDS011;11179;52.106;21.024;2022-08-21T02:31:19;12.27;;;6.83;;
22030;SDS011;11179;52.106;21.024;2022-08-21T02:33:44;14.40;;;6.33;;
22030;SDS011;11179;52.106;21.024;2022-08-21T02:36:10;15.77;;;6.90;;
22030;SDS011;11179;52.106;21.024;2022-08-21T02:38:37;11.27;;;6.40;;
22030;SDS011;11179;52.106;21.024;2022-08-21T02:41:08;9.83;;;5.83;;
22030;SDS011;11179;52.106;21.024;2022-08-21T02:43:35;12.27;;;7.10;;
22030;SDS011;11179;52.106;21.024;2022-08-21T02:46:02;11.70;;;7.10;;
22030;SDS011;11179;52.106;21.024;2022-08-21T02:48:29;10.63;;;7.20;;
22030;SDS011;11179;52.106;21.024;2022-08-21T02:50:58;11.20;;;6.47;;
22030;SDS011;11179;52.106;21.024;2022-08-21T02:53:26;11.13;;;6.77;;
22030;SDS011;11179;52.106;21.024;2022-08-21T02:55:53;11.73;;;7.30;;
22030;SDS011;11179;52.106;21.024;2022-08-21T02:58:23;13.75;;;7.20;;
22030;SDS011;11179;52.106;21.024;2022-08-21T03:00:51;14.00;;;7.43;;
22030;SDS011;11179;52.106;21.024;2022-08-21T03:03:17;12.60;;;6.83;;
22030;SDS011;11179;52.106;21.024;2022-08-21T03:05:46;9.40;;;6.30;;
22030;SDS011;11179;52.106;21.024;2022-08-21T03:08:13;13.83;;;7.60;;
22030;SDS011;11179;52.106;21.024;2022-08-21T03:10:41;14.37;;;7.07;;
22030;SDS011;11179;52.106;21.024;2022-08-21T03:13:10;12.97;;;6.93;;
22030;SDS011;11179;52.106;21.024;2022-08-21T03:15:36;11.90;;;7.40;;
22030;SDS011;11179;52.106;21.024;2022-08-21T03:18:02;12.60;;;6.37;;
22030;SDS011;11179;52.106;21.024;2022-08-21T03:20:30;10.60;;;6.63;;
22030;SDS011;11179;52.106;21.024;2022-08-21T03:22:57;11.63;;;6.93;;
22030;SDS011;11179;52.106;21.024;2022-08-21T03:25:23;11.27;;;6.50;;
22030;SDS011;11179;52.106;21.024;2022-08-21T03:27:50;11.00;;;7.07;;
22030;SDS011;11179;52.106;21.024;2022-08-21T03:30:16;11.10;;;6.60;;
22030;SDS011;11179;52.106;21.024;2022-08-21T03:32:44;13.13;;;6.90;;
22030;SDS011;11179;52.106;21.024;2022-08-21T03:35:10;15.27;;;6.47;;
22030;SDS011;11179;52.106;21.024;2022-08-21T03:37:36;12.00;;;7.10;;
22030;SDS011;11179;52.106;21.024;2022-08-21T03:40:05;11.10;;;6.63;;
22030;SDS011;11179;52.106;21.024;2022-08-21T03:42:33;14.13;;;7.30;;
22030;SDS011;11179;52.106;21.024;2022-08-21T03:44:58;13.03;;;6.83;;
22030;SDS011;11179;52.106;21.024;2022-08-21T03:47:23;11.47;;;6.73;;
22030;SDS011;11179;52.106;21.024;2022-08-21T03:49:49;16.70;;;7.60;;
22030;SDS011;11179;52.106;21.024;2022-08-21T03:52:15;13.10;;;6.70;;
22030;SDS011;11179;52.106;21.024;2022-08-21T03:54:42;17.37;;;6.97;;
22030;SDS011;11179;52.106;21.024;2022-08-21T03:57:08;13.40;;;7.40;;
22030;SDS011;11179;52.106;21.024;2022-08-21T03:59:34;14.30;;;6.70;;
22030;SDS011;11179;52.106;21.024;2022-08-21T04:02:02;15.90;;;7.00;;
22030;SDS011;11179;52.106;21.024;2022-08-21T04:04:29;11.30;;;6.47;;
22030;SDS011;11179;52.106;21.024;2022-08-21T04:06:55;11.13;;;6.73;;
22030;SDS011;11179;52.106;21.024;2022-08-21T04:09:21;10.70;;;7.10;;
22030;SDS011;11179;52.106;21.024;2022-08-21T04:11:47;13.33;;;6.93;;
22030;SDS011;11179;52.106;21.024;2022-08-21T04:14:13;11.33;;;5.90;;
22030;SDS011;11179;52.106;21.024;2022-08-21T04:16:40;11.60;;;6.50;;
22030;SDS011;11179;52.106;21.024;2022-08-21T04:19:06;11.10;;;6.10;;
22030;SDS011;11179;52.106;21.024;2022-08-21T04:21:31;13.23;;;6.53;;
22030;SDS011;11179;52.106;21.024;2022-08-21T04:23:57;9.57;;;6.50;;
22030;SDS011;11179;52.106;21.024;2022-08-21T04:26:24;15.37;;;6.67;;
22030;SDS011;11179;52.106;21.024;2022-08-21T04:28:50;13.13;;;7.00;;
22030;SDS011;11179;52.106;21.024;2022-08-21T04:31:16;12.10;;;6.23;;
22030;SDS011;11179;52.106;21.024;2022-08-21T04:33:41;13.37;;;6.47;;
22030;SDS011;11179;52.106;21.024;2022-08-21T04:36:06;9.17;;;5.67;;
22030;SDS011;11179;52.106;21.024;2022-08-21T04:38:33;14.33;;;6.80;;
22030;SDS011;11179;52.106;21.024;2022-08-21T04:40:59;13.60;;;6.50;;
22030;SDS011;11179;52.106;21.024;2022-08-21T04:43:24;12.10;;;6.03;;
22030;SDS011;11179;52.106;21.024;2022-08-21T04:45:50;12.27;;;6.00;;
22030;SDS011;11179;52.106;21.024;2022-08-21T04:48:17;9.10;;;5.50;;
22030;SDS011;11179;52.106;21.024;2022-08-21T04:53:33;12.20;;;5.87;;
22030;SDS011;11179;52.106;21.024;2022-08-21T04:56:07;10.93;;;5.80;;
22030;SDS011;11179;52.106;21.024;2022-08-21T04:58:36;11.10;;;6.07;;
22030;SDS011;11179;52.106;21.024;2022-08-21T05:01:03;9.63;;;5.40;;
22030;SDS011;11179;52.106;21.024;2022-08-21T05:03:32;10.57;;;6.37;;
22030;SDS011;11179;52.106;21.024;2022-08-21T05:05:59;8.40;;;5.17;;
22030;SDS011;11179;52.106;21.024;2022-08-21T05:08:25;9.20;;;5.80;;
22030;SDS011;11179;52.106;21.024;2022-08-21T05:10:53;9.60;;;5.40;;
22030;SDS011;11179;52.106;21.024;2022-08-21T05:13:19;8.47;;;5.20;;
22030;SDS011;11179;52.106;21.024;2022-08-21T05:15:45;10.20;;;5.60;;
22030;SDS011;11179;52.106;21.024;2022-08-21T05:18:10;8.77;;;5.00;;
22030;SDS011;11179;52.106;21.024;2022-08-21T05:20:36;11.03;;;5.40;;
22030;SDS011;11179;52.106;21.024;2022-08-21T05:23:06;9.10;;;5.60;;
22030;SDS011;11179;52.106;21.024;2022-08-21T05:25:33;11.60;;;5.70;;
22030;SDS011;11179;52.106;21.024;2022-08-21T05:27:58;13.13;;;5.17;;
22030;SDS011;11179;52.106;21.024;2022-08-21T05:30:24;9.17;;;5.40;;
22030;SDS011;11179;52.106;21.024;2022-08-21T05:32:49;14.50;;;5.97;;
22030;SDS011;11179;52.106;21.024;2022-08-21T05:35:14;9.23;;;5.33;;
22030;SDS011;11179;52.106;21.024;2022-08-21T05:37:40;14.17;;;4.90;;
22030;SDS011;11179;52.106;21.024;2022-08-21T05:40:05;11.70;;;5.70;;
22030;SDS011;11179;52.106;21.024;2022-08-21T05:42:32;11.40;;;5.70;;
22030;SDS011;11179;52.106;21.024;2022-08-21T05:44:58;9.00;;;5.73;;
22030;SDS011;11179;52.106;21.024;2022-08-21T05:47:23;7.80;;;4.60;;
22030;SDS011;11179;52.106;21.024;2022-08-21T05:49:48;8.13;;;5.40;;
22030;SDS011;11179;52.106;21.024;2022-08-21T05:52:18;10.20;;;5.73;;
22030;SDS011;11179;52.106;21.024;2022-08-21T05:54:44;9.57;;;5.10;;
22030;SDS011;11179;52.106;21.024;2022-08-21T05:57:10;9.07;;;5.80;;
22030;SDS011;11179;52.106;21.024;2022-08-21T05:59:35;13.20;;;5.63;;
22030;SDS011;11179;52.106;21.024;2022-08-21T06:02:01;12.80;;;5.87;;
22030;SDS011;11179;52.106;21.024;2022-08-21T06:04:27;9.67;;;5.73;;
22030;SDS011;11179;52.106;21.024;2022-08-21T06:06:52;10.83;;;6.27;;
22030;SDS011;11179;52.106;21.024;2022-08-21T06:09:18;11.50;;;5.90;;
22030;SDS011;11179;52.106;21.024;2022-08-21T06:11:43;10.37;;;5.97;;
22030;SDS011;11179;52.106;21.024;2022-08-21T06:14:08;9.03;;;5.70;;
22030;SDS011;11179;52.106;21.024;2022-08-21T06:16:34;9.70;;;6.00;;
22030;SDS011;11179;52.106;21.024;2022-08-21T06:18:59;12.40;;;6.10;;
22030;SDS011;11179;52.106;21.024;2022-08-21T06:21:24;14.10;;;5.90;;
22030;SDS011;11179;52.106;21.024;2022-08-21T06:23:50;8.10;;;5.30;;
22030;SDS011;11179;52.106;21.024;2022-08-21T06:26:15;9.20;;;5.47;;
22030;SDS011;11179;52.106;21.024;2022-08-21T06:28:41;11.90;;;5.83;;
22030;SDS011;11179;52.106;21.024;2022-08-21T06:31:15;9.90;;;5.43;;
22030;SDS011;11179;52.106;21.024;2022-08-21T06:33:45;11.03;;;5.67;;
22030;SDS011;11179;52.106;21.024;2022-08-21T06:36:11;8.60;;;5.13;;
22030;SDS011;11179;52.106;21.024;2022-08-21T06:38:37;9.57;;;5.67;;
22030;SDS011;11179;52.106;21.024;2022-08-21T06:41:03;8.70;;;5.40;;
22030;SDS011;11179;52.106;21.024;2022-08-21T06:43:29;8.50;;;5.33;;
22030;SDS011;11179;52.106;21.024;2022-08-21T06:45:55;10.43;;;6.00;;
22030;SDS011;11179;52.106;21.024;2022-08-21T06:48:20;10.00;;;5.57;;
22030;SDS011;11179;52.106;21.024;2022-08-21T06:50:46;12.10;;;6.17;;
22030;SDS011;11179;52.106;21.024;2022-08-21T06:53:12;18.23;;;5.43;;
22030;SDS011;11179;52.106;21.024;2022-08-21T06:55:39;8.80;;;5.30;;
22030;SDS011;11179;52.106;21.024;2022-08-21T06:58:05;8.07;;;5.27;;
22030;SDS011;11179;52.106;21.024;2022-08-21T07:00:31;13.13;;;5.70;;
22030;SDS011;11179;52.106;21.024;2022-08-21T07:02:57;10.93;;;5.37;;
22030;SDS011;11179;52.106;21.024;2022-08-21T07:05:24;12.13;;;6.53;;
22030;SDS011;11179;52.106;21.024;2022-08-21T07:07:51;11.00;;;5.70;;
22030;SDS011;11179;52.106;21.024;2022-08-21T07:10:17;8.33;;;4.90;;
22030;SDS011;11179;52.106;21.024;2022-08-21T07:12:42;10.67;;;5.50;;
22030;SDS011;11179;52.106;21.024;2022-08-21T07:15:08;10.00;;;6.10;;
22030;SDS011;11179;52.106;21.024;2022-08-21T07:17:34;8.53;;;5.50;;
22030;SDS011;11179;52.106;21.024;2022-08-21T07:19:59;14.17;;;5.47;;
22030;SDS011;11179;52.106;21.024;2022-08-21T07:22:25;11.63;;;5.67;;
22030;SDS011;11179;52.106;21.024;2022-08-21T07:24:52;10.60;;;6.17;;
22030;SDS011;11179;52.106;21.024;2022-08-21T07:27:18;7.70;;;5.33;;
22030;SDS011;11179;52.106;21.024;2022-08-21T07:29:43;11.07;;;6.10;;
22030;SDS011;11179;52.106;21.024;2022-08-21T07:32:09;10.20;;;5.97;;
22030;SDS011;11179;52.106;21.024;2022-08-21T07:34:34;7.90;;;5.40;;
22030;SDS011;11179;52.106;21.024;2022-08-21T07:36:59;9.43;;;5.57;;
22030;SDS011;11179;52.106;21.024;2022-08-21T07:39:25;9.97;;;5.50;;
22030;SDS011;11179;52.106;21.024;2022-08-21T07:41:50;9.40;;;5.27;;
22030;SDS011;11179;52.106;21.024;2022-08-21T07:44:16;10.10;;;5.33;;
22030;SDS011;11179;52.106;21.024;2022-08-21T07:46:41;9.60;;;5.40;;
22030;SDS011;11179;52.106;21.024;2022-08-21T07:49:07;10.27;;;5.80;;
22030;SDS011;11179;52.106;21.024;2022-08-21T07:51:32;7.83;;;4.80;;
22030;SDS011;11179;52.106;21.024;2022-08-21T07:53:59;9.77;;;4.57;;
22030;SDS011;11179;52.106;21.024;2022-08-21T07:56:25;12.27;;;5.73;;
22030;SDS011;11179;52.106;21.024;2022-08-21T07:58:51;7.80;;;4.97;;
22030;SDS011;11179;52.106;21.024;2022-08-21T08:01:17;10.33;;;5.07;;
22030;SDS011;11179;52.106;21.024;2022-08-21T08:03:43;9.00;;;5.03;;
22030;SDS011;11179;52.106;21.024;2022-08-21T08:06:10;9.17;;;6.00;;
22030;SDS011;11179;52.106;21.024;2022-08-21T08:08:37;9.17;;;5.40;;
22030;SDS011;11179;52.106;21.024;2022-08-21T08:11:04;10.33;;;5.60;;
22030;SDS011;11179;52.106;21.024;2022-08-21T08:13:30;9.17;;;5.90;;
22030;SDS011;11179;52.106;21.024;2022-08-21T08:15:55;9.70;;;5.70;;
22030;SDS011;11179;52.106;21.024;2022-08-21T08:18:20;7.70;;;4.63;;
22030;SDS011;11179;52.106;21.024;2022-08-21T08:20:46;11.53;;;5.00;;
22030;SDS011;11179;52.106;21.024;2022-08-21T08:23:12;10.23;;;5.40;;
22030;SDS011;11179;52.106;21.024;2022-08-21T08:25:38;13.53;;;6.00;;
22030;SDS011;11179;52.106;21.024;2022-08-21T08:28:05;17.03;;;5.23;;
22030;SDS011;11179;52.106;21.024;2022-08-21T08:30:31;12.30;;;5.73;;
22030;SDS011;11179;52.106;21.024;2022-08-21T08:32:57;7.40;;;5.10;;
22030;SDS011;11179;52.106;21.024;2022-08-21T08:35:24;10.63;;;5.33;;
22030;SDS011;11179;52.106;21.024;2022-08-21T08:37:51;12.30;;;5.70;;
22030;SDS011;11179;52.106;21.024;2022-08-21T08:40:26;7.87;;;5.00;;
22030;SDS011;11179;52.106;21.024;2022-08-21T08:42:58;9.07;;;5.50;;
22030;SDS011;11179;52.106;21.024;2022-08-21T08:45:24;9.43;;;4.67;;
22030;SDS011;11179;52.106;21.024;2022-08-21T08:47:56;10.17;;;5.03;;
22030;SDS011;11179;52.106;21.024;2022-08-21T08:53:23;9.27;;;4.53;;
22030;SDS011;11179;52.106;21.024;2022-08-21T08:55:55;10.50;;;4.70;;
22030;SDS011;11179;52.106;21.024;2022-08-21T08:58:23;6.40;;;4.20;;
22030;SDS011;11179;52.106;21.024;2022-08-21T09:00:55;10.93;;;4.87;;
22030;SDS011;11179;52.106;21.024;2022-08-21T09:03:23;7.23;;;4.93;;
22030;SDS011;11179;52.106;21.024;2022-08-21T09:05:58;14.57;;;4.90;;
22030;SDS011;11179;52.106;21.024;2022-08-21T09:08:38;9.93;;;4.77;;
22030;SDS011;11179;52.106;21.024;2022-08-21T09:22:06;10.13;;;4.23;;
22030;SDS011;11179;52.106;21.024;2022-08-21T09:24:44;8.53;;;4.67;;
22030;SDS011;11179;52.106;21.024;2022-08-21T09:27:19;6.90;;;4.30;;
22030;SDS011;11179;52.106;21.024;2022-08-21T09:29:48;7.87;;;4.70;;
22030;SDS011;11179;52.106;21.024;2022-08-21T09:37:25;7.30;;;4.37;;
22030;SDS011;11179;52.106;21.024;2022-08-21T09:39:54;12.73;;;4.37;;
22030;SDS011;11179;52.106;21.024;2022-08-21T09:42:26;8.60;;;4.83;;
22030;SDS011;11179;52.106;21.024;2022-08-21T09:45:05;8.17;;;4.00;;
22030;SDS011;11179;52.106;21.024;2022-08-21T09:47:35;9.40;;;4.77;;
22030;SDS011;11179;52.106;21.024;2022-08-21T09:50:09;8.40;;;4.30;;
22030;SDS011;11179;52.106;21.024;2022-08-21T09:52:48;9.47;;;4.13;;
22030;SDS011;11179;52.106;21.024;2022-08-21T09:55:19;9.47;;;4.30;;
22030;SDS011;11179;52.106;21.024;2022-08-21T09:58:06;8.30;;;4.67;;
22030;SDS011;11179;52.106;21.024;2022-08-21T10:00:32;7.23;;;4.20;;
22030;SDS011;11179;52.106;21.024;2022-08-21T10:03:13;14.10;;;4.03;;
22030;SDS011;11179;52.106;21.024;2022-08-21T10:05:49;6.70;;;4.27;;
22030;SDS011;11179;52.106;21.024;2022-08-21T10:08:39;7.20;;;4.60;;
22030;SDS011;11179;52.106;21.024;2022-08-21T10:11:11;10.87;;;4.27;;
22030;SDS011;11179;52.106;21.024;2022-08-21T10:27:59;9.33;;;4.10;;
22030;SDS011;11179;52.106;21.024;2022-08-21T10:30:10;8.23;;;4.37;;
22030;SDS011;11179;52.106;21.024;2022-08-21T10:48:50;11.37;;;3.90;;
22030;SDS011;11179;52.106;21.024;2022-08-21T10:51:46;8.23;;;3.73;;
22030;SDS011;11179;52.106;21.024;2022-08-21T10:54:23;9.60;;;4.20;;
22030;SDS011;11179;52.106;21.024;2022-08-21T10:56:59;6.40;;;3.90;;
22030;SDS011;11179;52.106;21.024;2022-08-21T11:02:22;6.13;;;3.60;;
22030;SDS011;11179;52.106;21.024;2022-08-21T11:05:17;11.43;;;4.27;;
22030;SDS011;11179;52.106;21.024;2022-08-21T11:07:57;6.30;;;3.67;;
22030;SDS011;11179;52.106;21.024;2022-08-21T11:10:32;6.13;;;3.23;;
22030;SDS011;11179;52.106;21.024;2022-08-21T11:13:03;7.73;;;3.40;;
22030;SDS011;11179;52.106;21.024;2022-08-21T11:15:49;6.57;;;3.47;;
22030;SDS011;11179;52.106;21.024;2022-08-21T11:18:33;7.30;;;3.63;;
22030;SDS011;11179;52.106;21.024;2022-08-21T11:23:38;6.30;;;3.40;;
22030;SDS011;11179;52.106;21.024;2022-08-21T11:26:17;6.87;;;3.50;;
22030;SDS011;11179;52.106;21.024;2022-08-21T11:28:52;8.27;;;3.37;;
22030;SDS011;11179;52.106;21.024;2022-08-21T11:34:01;6.07;;;3.13;;
22030;SDS011;11179;52.106;21.024;2022-08-21T11:50:26;7.13;;;3.30;;
22030;SDS011;11179;52.106;21.024;2022-08-21T11:53:00;7.33;;;3.57;;
22030;SDS011;11179;52.106;21.024;2022-08-21T11:55:43;5.73;;;3.10;;
22030;SDS011;11179;52.106;21.024;2022-08-21T11:58:18;9.70;;;3.57;;
22030;SDS011;11179;52.106;21.024;2022-08-21T12:00:52;8.30;;;3.60;;
22030;SDS011;11179;52.106;21.024;2022-08-21T12:03:29;7.00;;;4.00;;
22030;SDS011;11179;52.106;21.024;2022-08-21T12:05:58;7.43;;;3.47;;
22030;SDS011;11179;52.106;21.024;2022-08-21T12:08:31;7.13;;;3.93;;
22030;SDS011;11179;52.106;21.024;2022-08-21T12:11:06;6.90;;;3.60;;
22030;SDS011;11179;52.106;21.024;2022-08-21T12:13:58;14.73;;;3.30;;
22030;SDS011;11179;52.106;21.024;2022-08-21T12:19:03;7.17;;;4.10;;
22030;SDS011;11179;52.106;21.024;2022-08-21T12:21:30;7.30;;;3.77;;
22030;SDS011;11179;52.106;21.024;2022-08-21T12:29:33;6.17;;;3.83;;
22030;SDS011;11179;52.106;21.024;2022-08-21T12:32:03;6.83;;;3.80;;
22030;SDS011;11179;52.106;21.024;2022-08-21T12:34:48;8.30;;;3.43;;
22030;SDS011;11179;52.106;21.024;2022-08-21T12:40:17;6.10;;;3.57;;
22030;SDS011;11179;52.106;21.024;2022-08-21T12:42:47;7.00;;;3.63;;
22030;SDS011;11179;52.106;21.024;2022-08-21T12:47:49;5.50;;;3.20;;
22030;SDS011;11179;52.106;21.024;2022-08-21T12:53:09;8.77;;;3.40;;
22030;SDS011;11179;52.106;21.024;2022-08-21T12:55:35;7.00;;;3.73;;
22030;SDS011;11179;52.106;21.024;2022-08-21T12:58:06;6.00;;;3.37;;
22030;SDS011;11179;52.106;21.024;2022-08-21T13:00:44;9.03;;;3.40;;
22030;SDS011;11179;52.106;21.024;2022-08-21T13:03:14;9.70;;;3.77;;
22030;SDS011;11179;52.106;21.024;2022-08-21T13:05:39;5.30;;;3.17;;
22030;SDS011;11179;52.106;21.024;2022-08-21T13:08:06;6.90;;;3.50;;
22030;SDS011;11179;52.106;21.024;2022-08-21T13:10:34;7.70;;;3.13;;
22030;SDS011;11179;52.106;21.024;2022-08-21T13:13:04;5.70;;;3.60;;
22030;SDS011;11179;52.106;21.024;2022-08-21T13:15:34;6.97;;;4.00;;
22030;SDS011;11179;52.106;21.024;2022-08-21T13:18:03;8.07;;;3.60;;
22030;SDS011;11179;52.106;21.024;2022-08-21T13:20:34;6.37;;;3.70;;
22030;SDS011;11179;52.106;21.024;2022-08-21T13:23:07;6.80;;;3.70;;
22030;SDS011;11179;52.106;21.024;2022-08-21T13:25:44;6.90;;;3.40;;
22030;SDS011;11179;52.106;21.024;2022-08-21T13:28:11;7.60;;;4.23;;
22030;SDS011;11179;52.106;21.024;2022-08-21T13:30:43;6.27;;;3.63;;
22030;SDS011;11179;52.106;21.024;2022-08-21T13:33:12;10.50;;;4.10;;
22030;SDS011;11179;52.106;21.024;2022-08-21T13:38:22;7.07;;;3.80;;
22030;SDS011;11179;52.106;21.024;2022-08-21T13:41:02;8.20;;;3.90;;
22030;SDS011;11179;52.106;21.024;2022-08-21T13:43:50;7.87;;;3.33;;
22030;SDS011;11179;52.106;21.024;2022-08-21T13:46:24;8.50;;;4.30;;
22030;SDS011;11179;52.106;21.024;2022-08-21T13:48:54;7.13;;;3.90;;
22030;SDS011;11179;52.106;21.024;2022-08-21T13:51:20;8.60;;;4.00;;
22030;SDS011;11179;52.106;21.024;2022-08-21T13:53:47;6.40;;;3.80;;
22030;SDS011;11179;52.106;21.024;2022-08-21T13:56:24;7.23;;;3.87;;
22030;SDS011;11179;52.106;21.024;2022-08-21T13:58:52;7.63;;;3.93;;
22030;SDS011;11179;52.106;21.024;2022-08-21T14:03:53;8.60;;;5.07;;
22030;SDS011;11179;52.106;21.024;2022-08-21T14:06:26;7.07;;;4.00;;
22030;SDS011;11179;52.106;21.024;2022-08-21T14:11:20;11.07;;;4.07;;
22030;SDS011;11179;52.106;21.024;2022-08-21T14:13:55;7.77;;;3.93;;
22030;SDS011;11179;52.106;21.024;2022-08-21T14:16:24;6.80;;;3.50;;
22030;SDS011;11179;52.106;21.024;2022-08-21T14:21:28;8.57;;;4.30;;
22030;SDS011;11179;52.106;21.024;2022-08-21T14:26:58;12.13;;;5.07;;
22030;SDS011;11179;52.106;21.024;2022-08-21T14:29:31;8.33;;;4.50;;
22030;SDS011;11179;52.106;21.024;2022-08-21T14:32:08;7.10;;;4.60;;
22030;SDS011;11179;52.106;21.024;2022-08-21T14:34:40;7.20;;;3.97;;
22030;SDS011;11179;52.106;21.024;2022-08-21T14:37:05;8.87;;;4.67;;
22030;SDS011;11179;52.106;21.024;2022-08-21T14:39:31;8.10;;;4.57;;
22030;SDS011;11179;52.106;21.024;2022-08-21T14:41:56;6.60;;;3.40;;
22030;SDS011;11179;52.106;21.024;2022-08-21T14:44:23;6.70;;;3.60;;
22030;SDS011;11179;52.106;21.024;2022-08-21T14:46:49;7.27;;;3.30;;
22030;SDS011;11179;52.106;21.024;2022-08-21T14:49:14;7.30;;;3.67;;
22030;SDS011;11179;52.106;21.024;2022-08-21T14:51:40;6.17;;;3.40;;
22030;SDS011;11179;52.106;21.024;2022-08-21T14:54:05;6.60;;;3.90;;
22030;SDS011;11179;52.106;21.024;2022-08-21T14:56:32;7.30;;;3.63;;
22030;SDS011;11179;52.106;21.024;2022-08-21T14:59:01;6.30;;;3.37;;
22030;SDS011;11179;52.106;21.024;2022-08-21T15:01:29;7.90;;;3.83;;
22030;SDS011;11179;52.106;21.024;2022-08-21T15:03:56;6.40;;;3.40;;
22030;SDS011;11179;52.106;21.024;2022-08-21T15:06:22;6.80;;;4.10;;
22030;SDS011;11179;52.106;21.024;2022-08-21T15:08:47;10.57;;;3.90;;
22030;SDS011;11179;52.106;21.024;2022-08-21T15:11:16;8.43;;;4.03;;
22030;SDS011;11179;52.106;21.024;2022-08-21T15:13:45;8.17;;;3.47;;
22030;SDS011;11179;52.106;21.024;2022-08-21T15:16:11;8.53;;;3.50;;
22030;SDS011;11179;52.106;21.024;2022-08-21T15:18:38;6.97;;;4.07;;
22030;SDS011;11179;52.106;21.024;2022-08-21T15:21:04;6.53;;;3.50;;
22030;SDS011;11179;52.106;21.024;2022-08-21T15:23:29;7.20;;;3.47;;
22030;SDS011;11179;52.106;21.024;2022-08-21T15:25:55;6.50;;;3.60;;
22030;SDS011;11179;52.106;21.024;2022-08-21T15:28:22;6.73;;;3.90;;
22030;SDS011;11179;52.106;21.024;2022-08-21T15:30:48;6.20;;;3.60;;
22030;SDS011;11179;52.106;21.024;2022-08-21T15:33:14;7.13;;;3.77;;
22030;SDS011;11179;52.106;21.024;2022-08-21T15:35:39;9.77;;;3.53;;
22030;SDS011;11179;52.106;21.024;2022-08-21T15:38:05;6.23;;;3.30;;
22030;SDS011;11179;52.106;21.024;2022-08-21T15:40:30;7.43;;;3.93;;
22030;SDS011;11179;52.106;21.024;2022-08-21T15:43:00;7.00;;;3.37;;
22030;SDS011;11179;52.106;21.024;2022-08-21T15:45:27;6.10;;;3.50;;
22030;SDS011;11179;52.106;21.024;2022-08-21T15:47:53;9.07;;;3.50;;
22030;SDS011;11179;52.106;21.024;2022-08-21T15:50:19;7.53;;;3.43;;
22030;SDS011;11179;52.106;21.024;2022-08-21T15:52:45;7.40;;;3.40;;
22030;SDS011;11179;52.106;21.024;2022-08-21T15:55:10;11.23;;;3.50;;
22030;SDS011;11179;52.106;21.024;2022-08-21T15:57:37;8.70;;;3.53;;
22030;SDS011;11179;52.106;21.024;2022-08-21T16:00:12;6.83;;;3.20;;
22030;SDS011;11179;52.106;21.024;2022-08-21T16:02:43;5.90;;;3.40;;
22030;SDS011;11179;52.106;21.024;2022-08-21T16:05:12;13.53;;;4.30;;
22030;SDS011;11179;52.106;21.024;2022-08-21T16:07:38;7.00;;;4.07;;
22030;SDS011;11179;52.106;21.024;2022-08-21T16:10:05;6.77;;;3.60;;
22030;SDS011;11179;52.106;21.024;2022-08-21T16:12:32;6.67;;;3.70;;
22030;SDS011;11179;52.106;21.024;2022-08-21T16:15:03;6.90;;;3.83;;
22030;SDS011;11179;52.106;21.024;2022-08-21T16:17:32;9.03;;;4.90;;
22030;SDS011;11179;52.106;21.024;2022-08-21T16:20:00;10.10;;;5.23;;